createdAt,value
2018-11-28T00:00:02.480Z,44.50
2018-11-28T00:02:30.599Z,44.40
2018-11-28T00:04:58.711Z,44.40
2018-11-28T00:07:26.827Z,44.40
2018-11-28T00:09:54.923Z,44.40
2018-11-28T00:12:23.037Z,44.30
2018-11-28T00:14:51.148Z,45.00
2018-11-28T00:17:19.243Z,44.30
2018-11-28T00:19:47.347Z,44.30
2018-11-28T00:22:15.491Z,44.40
2018-11-28T00:24:43.601Z,44.30
2018-11-28T00:27:11.727Z,44.50
2018-11-28T00:29:39.843Z,44.40
2018-11-28T00:32:07.982Z,44.40
2018-11-28T00:34:36.082Z,44.40
2018-11-28T00:37:04.276Z,44.40
2018-11-28T00:39:32.391Z,44.40
2018-11-28T00:42:00.492Z,44.40
2018-11-28T00:44:28.591Z,44.40
2018-11-28T00:46:56.718Z,44.40
2018-11-28T00:49:24.865Z,44.40
2018-11-28T00:51:52.965Z,44.40
2018-11-28T00:54:21.047Z,44.40
2018-11-28T00:56:49.139Z,44.40
2018-11-28T00:59:17.231Z,44.50
2018-11-28T01:01:45.376Z,44.40
2018-11-28T01:04:13.464Z,44.30
2018-11-28T01:06:41.559Z,44.30
2018-11-28T01:09:09.650Z,44.30
2018-11-28T01:11:37.760Z,44.30
2018-11-28T01:14:05.897Z,44.90
2018-11-28T01:16:33.987Z,44.30
2018-11-28T01:19:02.094Z,44.30
2018-11-28T01:21:30.200Z,44.40
2018-11-28T01:23:58.302Z,44.40
2018-11-28T01:26:26.411Z,44.30
2018-11-28T01:28:54.531Z,44.30
2018-11-28T01:31:22.628Z,44.40
2018-11-28T01:33:50.728Z,44.30
2018-11-28T01:36:18.831Z,44.30
2018-11-28T01:38:46.899Z,44.40
2018-11-28T01:41:15.013Z,44.30
2018-11-28T01:43:43.103Z,44.30
2018-11-28T01:46:11.191Z,44.30
2018-11-28T01:48:39.331Z,44.30
2018-11-28T01:51:07.415Z,44.30
2018-11-28T01:53:35.606Z,44.30
2018-11-28T01:56:03.744Z,44.30
2018-11-28T01:58:31.835Z,44.30
2018-11-28T02:01:00.030Z,45.00
2018-11-28T02:03:28.099Z,44.30
2018-11-28T02:05:56.272Z,44.40
2018-11-28T02:08:24.370Z,44.40
2018-11-28T02:10:52.498Z,44.30
2018-11-28T02:13:20.614Z,44.30
2018-11-28T02:15:48.699Z,44.30
2018-11-28T02:18:16.812Z,44.30
2018-11-28T02:20:44.926Z,44.20
2018-11-28T02:23:13.005Z,44.30
2018-11-28T02:25:41.118Z,44.20
2018-11-28T02:28:09.215Z,44.20
2018-11-28T02:30:37.503Z,44.20
2018-11-28T02:33:05.614Z,44.20
2018-11-28T02:35:33.713Z,44.20
2018-11-28T02:38:01.799Z,44.20
2018-11-28T02:40:29.928Z,44.30
2018-11-28T02:42:58.027Z,44.20
2018-11-28T02:45:26.113Z,44.20
2018-11-28T02:47:54.200Z,43.70
2018-11-28T02:50:22.286Z,44.20
2018-11-28T02:52:50.431Z,44.20
2018-11-28T02:55:18.699Z,44.20
2018-11-28T02:57:47.949Z,44.20
2018-11-28T03:00:17.420Z,44.20
2018-11-28T03:02:45.504Z,44.20
2018-11-28T03:05:13.898Z,44.20
2018-11-28T03:07:41.998Z,44.20
2018-11-28T03:10:11.839Z,44.20
2018-11-28T03:12:39.920Z,44.10
2018-11-28T03:15:12.203Z,44.80
2018-11-28T03:17:40.331Z,44.10
2018-11-28T03:20:09.821Z,44.10
2018-11-28T03:22:38.406Z,44.20
2018-11-28T03:25:08.245Z,44.20
2018-11-28T03:27:36.335Z,44.20
2018-11-28T03:30:08.547Z,44.10
2018-11-28T03:32:36.641Z,44.10
2018-11-28T03:35:05.627Z,44.10
2018-11-28T03:37:33.792Z,44.20
2018-11-28T03:40:02.013Z,44.20
2018-11-28T03:42:30.128Z,44.20
2018-11-28T03:44:58.232Z,44.40
2018-11-28T03:47:26.347Z,44.10
2018-11-28T03:49:54.451Z,44.10
2018-11-28T03:52:22.555Z,44.10
2018-11-28T03:54:50.639Z,44.10
2018-11-28T03:57:18.748Z,44.20
2018-11-28T03:59:46.854Z,44.50
2018-11-28T04:02:14.952Z,44.10
2018-11-28T04:04:43.091Z,44.20
2018-11-28T04:07:11.202Z,44.10
2018-11-28T04:09:39.322Z,44.20
2018-11-28T04:12:07.411Z,44.20
2018-11-28T04:14:35.532Z,44.20
2018-11-28T04:17:03.662Z,44.10
2018-11-28T04:19:31.820Z,44.20
2018-11-28T04:21:59.907Z,44.20
2018-11-28T04:24:28.011Z,44.20
2018-11-28T04:26:56.132Z,44.30
2018-11-28T04:29:24.218Z,44.20
2018-11-28T04:31:52.312Z,44.20
2018-11-28T04:34:20.399Z,44.20
2018-11-28T04:36:48.544Z,44.20
2018-11-28T04:39:16.672Z,44.10
2018-11-28T04:41:44.919Z,44.20
2018-11-28T04:44:13.075Z,44.20
2018-11-28T04:46:41.223Z,44.20
2018-11-28T04:49:09.322Z,44.20
2018-11-28T04:51:37.407Z,44.10
2018-11-28T04:54:05.478Z,44.10
2018-11-28T04:56:33.552Z,44.10
2018-11-28T04:59:01.692Z,44.10
2018-11-28T05:01:29.808Z,44.10
2018-11-28T05:03:57.870Z,44.10
2018-11-28T05:06:35.080Z,44.10
2018-11-28T05:09:03.616Z,44.10
2018-11-28T05:11:31.827Z,44.10
2018-11-28T05:13:59.937Z,44.10
2018-11-28T05:16:28.071Z,44.10
2018-11-28T05:18:56.215Z,44.10
2018-11-28T05:21:24.304Z,44.20
2018-11-28T05:23:52.535Z,44.10
2018-11-28T05:26:20.628Z,44.10
2018-11-28T05:28:48.706Z,44.10
2018-11-28T05:31:16.839Z,44.10
2018-11-28T05:33:44.947Z,44.10
2018-11-28T05:36:13.028Z,44.10
2018-11-28T05:38:41.172Z,44.10
2018-11-28T05:41:09.271Z,44.10
2018-11-28T05:43:37.405Z,44.10
2018-11-28T05:46:05.965Z,44.10
2018-11-28T05:48:34.055Z,44.10
2018-11-28T05:51:02.169Z,44.10
2018-11-28T05:53:30.356Z,44.10
2018-11-28T05:55:58.598Z,44.10
2018-11-28T05:58:26.699Z,44.10
2018-11-28T06:00:54.823Z,44.10
2018-11-28T06:03:22.948Z,44.10
2018-11-28T06:05:51.143Z,44.00
2018-11-28T06:08:19.402Z,44.10
2018-11-28T06:10:47.513Z,44.60
2018-11-28T06:13:15.623Z,44.70
2018-11-28T06:15:43.739Z,44.00
2018-11-28T06:18:11.919Z,44.00
2018-11-28T06:20:40.024Z,44.00
2018-11-28T06:23:08.135Z,44.00
2018-11-28T06:25:36.382Z,44.00
2018-11-28T06:28:04.522Z,44.00
2018-11-28T06:30:32.715Z,44.00
2018-11-28T06:33:00.958Z,44.00
2018-11-28T06:35:29.074Z,44.00
2018-11-28T06:37:57.172Z,44.00
2018-11-28T06:40:25.279Z,44.00
2018-11-28T06:42:53.408Z,44.00
2018-11-28T06:45:22.401Z,44.00
2018-11-28T06:47:50.761Z,44.00
2018-11-28T06:50:19.536Z,44.00
2018-11-28T06:52:49.686Z,44.00
2018-11-28T06:55:19.835Z,44.00
2018-11-28T06:57:47.976Z,44.00
2018-11-28T07:00:17.078Z,44.00
2018-11-28T07:02:45.553Z,44.00
2018-11-28T07:05:13.694Z,44.00
2018-11-28T07:07:41.869Z,44.00
2018-11-28T07:10:12.293Z,44.00
2018-11-28T07:12:40.395Z,44.00
2018-11-28T07:15:10.875Z,44.00
2018-11-28T07:17:39.772Z,44.00
2018-11-28T07:20:09.324Z,44.00
2018-11-28T07:22:37.623Z,44.00
2018-11-28T07:25:12.242Z,44.00
2018-11-28T07:27:45.159Z,44.00
2018-11-28T07:30:13.112Z,44.00
2018-11-28T07:32:41.292Z,44.00
2018-11-28T07:35:09.950Z,44.00
2018-11-28T07:37:38.214Z,44.00
2018-11-28T07:40:15.811Z,44.00
2018-11-28T07:42:46.540Z,44.00
2018-11-28T07:45:14.715Z,44.00
2018-11-28T07:47:42.787Z,43.90
2018-11-28T07:50:11.047Z,43.90
2018-11-28T07:52:39.155Z,43.90
2018-11-28T07:55:09.751Z,44.00
2018-11-28T07:57:38.139Z,43.90
2018-11-28T08:00:11.463Z,43.90
2018-11-28T08:02:39.714Z,43.90
2018-11-28T08:05:08.791Z,43.90
2018-11-28T08:07:36.906Z,43.90
2018-11-28T08:10:06.662Z,43.90
2018-11-28T08:12:34.752Z,43.90
2018-11-28T08:15:02.961Z,43.60
2018-11-28T08:17:31.076Z,43.90
2018-11-28T08:19:59.212Z,43.90
2018-11-28T08:22:27.427Z,43.90
2018-11-28T08:24:55.458Z,43.90
2018-11-28T08:27:23.547Z,43.90
2018-11-28T08:29:51.689Z,43.90
2018-11-28T08:32:19.783Z,43.90
2018-11-28T08:34:47.882Z,43.90
2018-11-28T08:37:15.963Z,43.90
2018-11-28T08:39:44.071Z,43.80
2018-11-28T08:42:12.168Z,43.80
2018-11-28T08:44:40.292Z,43.80
2018-11-28T08:47:08.435Z,43.80
2018-11-28T08:49:36.548Z,43.80
2018-11-28T08:52:04.624Z,43.80
2018-11-28T08:54:32.773Z,43.80
2018-11-28T08:57:00.868Z,43.80
2018-11-28T08:59:29.068Z,43.80
2018-11-28T09:01:57.151Z,43.80
2018-11-28T09:04:25.302Z,43.80
2018-11-28T09:06:53.424Z,43.70
2018-11-28T09:09:21.531Z,43.80
2018-11-28T09:11:49.649Z,43.70
2018-11-28T09:14:17.817Z,43.70
2018-11-28T09:16:45.919Z,43.70
2018-11-28T09:19:14.021Z,43.70
2018-11-28T09:21:42.109Z,43.70
2018-11-28T09:24:10.223Z,43.70
2018-11-28T09:26:38.387Z,43.70
2018-11-28T09:29:06.483Z,44.30
2018-11-28T09:31:34.627Z,43.70
2018-11-28T09:34:02.791Z,43.70
2018-11-28T09:36:30.892Z,43.70
2018-11-28T09:38:58.992Z,43.60
2018-11-28T09:41:27.336Z,43.60
2018-11-28T09:43:55.423Z,43.60
2018-11-28T09:46:23.511Z,43.60
2018-11-28T09:48:52.615Z,43.60
2018-11-28T09:51:20.737Z,43.60
2018-11-28T09:53:48.853Z,43.50
2018-11-28T09:56:16.949Z,43.50
2018-11-28T09:58:45.131Z,43.50
2018-11-28T10:01:13.210Z,43.50
2018-11-28T10:03:41.321Z,43.50
2018-11-28T10:06:09.443Z,43.50
2018-11-28T10:08:37.620Z,43.50
2018-11-28T10:11:05.839Z,43.40
2018-11-28T10:13:33.968Z,43.50
2018-11-28T10:16:02.047Z,43.40
2018-11-28T10:18:30.127Z,44.00
2018-11-28T10:20:58.283Z,43.40
2018-11-28T10:23:26.356Z,43.40
2018-11-28T10:25:54.524Z,43.40
2018-11-28T10:28:22.645Z,43.30
2018-11-28T10:30:50.755Z,43.30
2018-11-28T10:33:18.839Z,43.30
2018-11-28T10:35:47.012Z,43.30
2018-11-28T10:38:15.162Z,43.30
2018-11-28T10:40:43.343Z,43.70
2018-11-28T10:43:11.431Z,43.50
2018-11-28T10:45:39.563Z,43.30
2018-11-28T10:48:09.627Z,43.30
2018-11-28T10:50:38.440Z,43.30
2018-11-28T10:53:06.896Z,43.30
2018-11-28T10:55:35.011Z,43.30
2018-11-28T10:58:03.115Z,43.20
2018-11-28T11:00:36.864Z,43.20
2018-11-28T11:03:11.942Z,43.30
2018-11-28T11:05:45.482Z,43.20
2018-11-28T11:08:19.158Z,43.20
2018-11-28T11:10:52.865Z,43.10
2018-11-28T11:13:26.470Z,43.80
2018-11-28T11:15:58.629Z,43.10
2018-11-28T11:18:27.597Z,43.00
2018-11-28T11:20:55.659Z,43.00
2018-11-28T11:23:23.930Z,43.00
2018-11-28T11:25:52.542Z,43.00
2018-11-28T11:28:20.741Z,42.90
2018-11-28T11:30:48.904Z,42.90
2018-11-28T11:33:16.998Z,42.90
2018-11-28T11:35:45.112Z,42.90
2018-11-28T11:38:13.235Z,42.90
2018-11-28T11:40:41.438Z,43.00
2018-11-28T11:43:09.817Z,43.00
2018-11-28T11:45:37.955Z,42.90
2018-11-28T11:48:06.394Z,42.90
2018-11-28T11:50:34.839Z,42.80
2018-11-28T11:53:02.956Z,42.80
2018-11-28T11:55:31.066Z,42.70
2018-11-28T11:57:59.205Z,42.70
2018-11-28T12:00:27.425Z,42.60
2018-11-28T12:02:57.968Z,42.60
2018-11-28T12:05:26.068Z,42.70
2018-11-28T12:07:54.203Z,42.60
2018-11-28T12:10:22.365Z,42.80
2018-11-28T12:12:51.777Z,42.90
2018-11-28T12:15:18.618Z,43.00
2018-11-28T12:17:47.652Z,42.90
2018-11-28T12:20:25.158Z,42.90
2018-11-28T12:22:53.320Z,42.80
2018-11-28T12:25:21.400Z,42.90
2018-11-28T12:27:49.491Z,42.90
2018-11-28T12:30:17.732Z,42.90
2018-11-28T12:32:45.861Z,42.80
2018-11-28T12:35:15.492Z,42.70
2018-11-28T12:37:44.610Z,42.70
2018-11-28T12:40:13.669Z,42.70
2018-11-28T12:42:43.019Z,42.70
2018-11-28T12:45:15.727Z,42.60
2018-11-28T12:47:44.803Z,42.00
2018-11-28T12:50:19.116Z,37.80
2018-11-28T12:52:47.227Z,34.20
2018-11-28T12:55:15.487Z,32.50
2018-11-28T12:57:43.614Z,31.10
2018-11-28T13:00:15.996Z,30.30
2018-11-28T13:02:44.167Z,29.80
2018-11-28T13:05:13.472Z,29.00
2018-11-28T13:07:41.606Z,28.70
2018-11-28T13:10:14.167Z,28.60
2018-11-28T13:12:42.600Z,30.50
2018-11-28T13:15:12.791Z,32.40
2018-11-28T13:17:40.927Z,32.00
2018-11-28T13:20:11.356Z,32.40
2018-11-28T13:22:39.540Z,32.70
2018-11-28T13:25:11.886Z,33.30
2018-11-28T13:27:40.091Z,34.10
2018-11-28T13:30:11.119Z,33.80
2018-11-28T13:32:39.678Z,34.20
2018-11-28T13:35:07.847Z,34.40
2018-11-28T13:37:36.036Z,34.60
2018-11-28T13:40:04.386Z,35.00
2018-11-28T13:42:32.519Z,35.30
2018-11-28T13:45:00.625Z,35.50
2018-11-28T13:47:28.741Z,35.80
2018-11-28T13:49:56.868Z,36.00
2018-11-28T13:52:25.000Z,36.30
2018-11-28T13:55:37.678Z,36.60
2018-11-28T13:57:21.551Z,36.80
2018-11-28T13:59:49.419Z,36.90
2018-11-28T14:02:17.594Z,37.60
2018-11-28T14:04:45.799Z,38.10
2018-11-28T14:07:13.943Z,38.20
2018-11-28T14:09:42.299Z,38.70
2018-11-28T14:12:10.445Z,39.30
2018-11-28T14:14:38.551Z,39.30
2018-11-28T14:17:06.627Z,39.30
2018-11-28T14:19:34.851Z,39.50
2018-11-28T14:22:02.980Z,40.30
2018-11-28T14:24:31.126Z,40.10
2018-11-28T14:26:59.284Z,40.40
2018-11-28T14:29:27.359Z,40.20
2018-11-28T14:31:55.455Z,40.30
2018-11-28T14:34:23.551Z,40.50
2018-11-28T14:36:51.699Z,40.50
2018-11-28T14:39:19.909Z,41.20
2018-11-28T14:41:48.073Z,41.40
2018-11-28T14:44:16.211Z,40.90
2018-11-28T14:46:44.310Z,41.10
2018-11-28T14:49:12.555Z,41.30
2018-11-28T14:51:40.657Z,41.60
2018-11-28T14:54:08.748Z,41.50
2018-11-28T14:56:36.883Z,41.50
2018-11-28T14:59:05.699Z,41.80
2018-11-28T15:01:33.841Z,41.90
2018-11-28T15:04:02.051Z,42.00
2018-11-28T15:06:35.003Z,42.10
2018-11-28T15:09:08.675Z,42.10
2018-11-28T15:11:36.868Z,42.20
2018-11-28T15:14:04.968Z,42.20
2018-11-28T15:16:33.094Z,42.60
2018-11-28T15:19:01.218Z,42.50
2018-11-28T15:21:29.340Z,43.20
2018-11-28T15:23:57.435Z,42.60
2018-11-28T15:26:25.540Z,42.60
2018-11-28T15:28:53.682Z,43.00
2018-11-28T15:31:21.763Z,42.80
2018-11-28T15:33:49.923Z,43.00
2018-11-28T15:36:18.024Z,42.90
2018-11-28T15:38:46.118Z,42.90
2018-11-28T15:41:14.220Z,42.90
2018-11-28T15:43:42.428Z,42.90
2018-11-28T15:46:14.868Z,42.90
2018-11-28T15:48:38.771Z,42.90
2018-11-28T15:51:06.887Z,42.90
2018-11-28T15:53:34.991Z,43.00
2018-11-28T15:56:03.259Z,43.00
2018-11-28T15:58:31.372Z,43.00
2018-11-28T16:00:59.554Z,43.00
2018-11-28T16:03:27.743Z,42.90
2018-11-28T16:05:55.919Z,42.90
2018-11-28T16:08:24.091Z,43.10
2018-11-28T16:10:52.563Z,43.00
2018-11-28T16:13:20.717Z,43.20
2018-11-28T16:15:53.350Z,43.00
2018-11-28T16:18:21.811Z,43.50
2018-11-28T16:20:50.637Z,42.90
2018-11-28T16:23:18.937Z,42.90
2018-11-28T16:25:47.158Z,42.90
2018-11-28T16:28:15.562Z,43.00
2018-11-28T16:30:43.697Z,43.10
2018-11-28T16:33:11.977Z,43.00
2018-11-28T16:35:40.303Z,43.10
2018-11-28T16:38:08.502Z,42.90
2018-11-28T16:40:37.358Z,42.90
2018-11-28T16:43:06.024Z,42.90
2018-11-28T16:45:34.463Z,43.00
2018-11-28T16:48:03.044Z,43.00
2018-11-28T16:50:31.250Z,42.80
2018-11-28T16:52:59.416Z,42.70
2018-11-28T16:55:27.558Z,42.60
2018-11-28T16:57:55.901Z,42.60
2018-11-28T17:00:25.525Z,42.80
2018-11-28T17:02:54.417Z,42.90
2018-11-28T17:05:23.016Z,43.00
2018-11-28T17:07:51.610Z,42.90
2018-11-28T17:10:28.773Z,42.90
2018-11-28T17:12:57.675Z,43.00
2018-11-28T17:15:25.798Z,42.90
2018-11-28T17:17:54.021Z,42.90
2018-11-28T17:20:23.131Z,43.00
2018-11-28T17:22:52.367Z,42.90
2018-11-28T17:25:21.574Z,42.80
2018-11-28T17:27:49.693Z,42.80
2018-11-28T17:30:19.314Z,42.80
2018-11-28T17:32:47.524Z,42.80
2018-11-28T17:35:15.678Z,42.70
2018-11-28T17:37:43.796Z,42.80
2018-11-28T17:40:14.057Z,42.60
2018-11-28T17:42:42.732Z,42.60
2018-11-28T17:45:13.100Z,42.80
2018-11-28T17:47:41.356Z,42.80
2018-11-28T17:50:16.149Z,42.80
2018-11-28T17:52:55.948Z,43.00
2018-11-28T17:55:24.807Z,42.90
2018-11-28T17:57:52.979Z,42.90
2018-11-28T18:00:22.009Z,42.90
2018-11-28T18:02:50.236Z,43.10
2018-11-28T18:05:18.887Z,43.00
2018-11-28T18:07:48.607Z,42.90
2018-11-28T18:10:18.064Z,42.90
2018-11-28T18:13:00.533Z,42.90
2018-11-28T18:15:28.695Z,43.00
2018-11-28T18:17:57.496Z,43.00
2018-11-28T18:20:25.779Z,42.90
2018-11-28T18:22:53.980Z,42.90
2018-11-28T18:25:22.844Z,42.90
2018-11-28T18:27:51.210Z,42.90
2018-11-28T18:30:19.324Z,42.80
2018-11-28T18:32:47.457Z,42.80
2018-11-28T18:35:15.549Z,42.80
2018-11-28T18:37:43.660Z,42.90
2018-11-28T18:40:12.420Z,42.90
2018-11-28T18:42:41.620Z,42.90
2018-11-28T18:45:11.978Z,42.90
2018-11-28T18:47:40.092Z,42.90
2018-11-28T18:50:09.414Z,42.90
2018-11-28T18:52:37.555Z,42.90
2018-11-28T18:55:09.222Z,42.90
2018-11-28T18:57:37.391Z,42.90
2018-11-28T19:00:10.103Z,43.00
2018-11-28T19:02:38.231Z,43.00
2018-11-28T19:05:06.534Z,42.90
2018-11-28T19:07:34.642Z,42.90
2018-11-28T19:10:02.921Z,42.90
2018-11-28T19:12:31.112Z,42.80
2018-11-28T19:14:59.228Z,42.80
2018-11-28T19:17:27.329Z,42.90
2018-11-28T19:19:55.450Z,42.90
2018-11-28T19:24:58.248Z,42.90
2018-11-28T19:27:26.342Z,42.90
2018-11-28T19:29:54.507Z,42.50
2018-11-28T19:32:22.636Z,43.00
2018-11-28T19:34:50.825Z,43.00
2018-11-28T19:37:18.930Z,43.00
2018-11-28T19:39:47.099Z,43.00
2018-11-28T19:42:15.222Z,43.00
2018-11-28T19:44:43.335Z,43.00
2018-11-28T19:47:11.955Z,43.00
2018-11-28T19:49:39.575Z,43.00
2018-11-28T19:52:07.676Z,43.00
2018-11-28T19:54:35.799Z,43.00
2018-11-28T19:57:03.974Z,43.00
2018-11-28T19:59:32.139Z,43.00
2018-11-28T20:02:00.222Z,43.10
2018-11-28T20:04:28.350Z,43.10
2018-11-28T20:06:56.568Z,43.80
2018-11-28T20:09:24.688Z,43.10
2018-11-28T20:11:52.921Z,43.10
2018-11-28T20:14:21.095Z,43.20
2018-11-28T20:16:49.206Z,43.20
2018-11-28T20:19:17.782Z,43.20
2018-11-28T20:21:45.771Z,43.20
2018-11-28T20:24:13.927Z,43.10
2018-11-28T20:26:42.037Z,43.20
2018-11-28T20:29:10.148Z,43.20
2018-11-28T20:31:38.243Z,43.20
2018-11-28T20:34:06.499Z,43.20
2018-11-28T20:36:34.640Z,43.20
2018-11-28T20:39:02.815Z,43.60
2018-11-28T20:41:31.037Z,43.20
2018-11-28T20:43:59.184Z,43.20
2018-11-28T20:46:27.304Z,43.20
2018-11-28T20:48:55.392Z,43.30
2018-11-28T20:51:23.512Z,43.20
2018-11-28T20:53:51.670Z,43.10
2018-11-28T20:56:19.784Z,43.20
2018-11-28T20:58:47.899Z,43.20
2018-11-28T21:01:16.057Z,43.20
2018-11-28T21:03:44.163Z,43.20
2018-11-28T21:06:12.302Z,43.20
2018-11-28T21:08:40.427Z,43.30
2018-11-28T21:11:08.499Z,43.20
2018-11-28T21:13:37.035Z,43.20
2018-11-28T21:16:05.427Z,43.20
2018-11-28T21:18:33.500Z,43.20
2018-11-28T21:21:01.601Z,43.30
2018-11-28T21:23:29.719Z,43.30
2018-11-28T21:25:57.827Z,43.30
2018-11-28T21:28:25.997Z,43.30
2018-11-28T21:30:54.197Z,43.30
2018-11-28T21:33:22.358Z,43.30
2018-11-28T21:35:51.782Z,43.30
2018-11-28T21:38:19.913Z,43.30
2018-11-28T21:40:48.092Z,43.30
2018-11-28T21:43:16.204Z,43.30
2018-11-28T21:45:44.310Z,43.40
2018-11-28T21:48:12.414Z,43.40
2018-11-28T21:50:40.578Z,43.40
2018-11-28T21:53:09.262Z,43.30
2018-11-28T21:55:37.591Z,43.40
2018-11-28T21:58:05.745Z,43.40
2018-11-28T22:00:35.271Z,43.40
2018-11-28T22:03:03.431Z,43.40
2018-11-28T22:05:31.599Z,43.40
2018-11-28T22:07:59.710Z,43.40
2018-11-28T22:10:27.808Z,43.40
2018-11-28T22:12:55.962Z,43.40
2018-11-28T22:15:24.207Z,43.40
2018-11-28T22:17:54.329Z,43.40
2018-11-28T22:20:22.993Z,43.40
2018-11-28T22:22:51.108Z,43.40
2018-11-28T22:25:23.110Z,43.40
2018-11-28T22:27:51.309Z,43.40
2018-11-28T22:30:20.587Z,43.30
2018-11-28T22:32:48.686Z,43.40
2018-11-28T22:35:16.813Z,43.30
2018-11-28T22:37:44.931Z,43.30
2018-11-28T22:40:15.354Z,43.30
2018-11-28T22:42:43.432Z,43.30
2018-11-28T22:45:13.808Z,44.00
2018-11-28T22:47:41.923Z,43.40
2018-11-28T22:50:11.184Z,43.30
2018-11-28T22:52:39.442Z,43.40
2018-11-28T22:55:10.755Z,43.30
2018-11-28T22:57:38.845Z,43.40
2018-11-28T23:00:16.852Z,43.30
2018-11-28T23:02:53.900Z,43.40
2018-11-28T23:05:29.687Z,43.30
2018-11-28T23:07:58.924Z,43.40
2018-11-28T23:10:27.038Z,43.30
2018-11-28T23:12:55.160Z,43.30
2018-11-28T23:15:23.255Z,43.30
2018-11-28T23:17:55.145Z,43.30
2018-11-28T23:20:19.499Z,43.30
2018-11-28T23:22:47.583Z,43.30
2018-11-28T23:25:15.693Z,43.30
2018-11-28T23:27:43.793Z,43.30
2018-11-28T23:30:13.114Z,43.30
2018-11-28T23:32:41.253Z,43.30
2018-11-28T23:35:10.387Z,43.30
2018-11-28T23:37:39.086Z,43.30
2018-11-28T23:40:09.290Z,43.30
2018-11-28T23:42:37.383Z,43.30
2018-11-28T23:45:06.559Z,43.30
2018-11-28T23:47:34.697Z,43.30
2018-11-28T23:50:02.812Z,43.40
2018-11-28T23:52:30.895Z,43.30
2018-11-28T23:54:59.146Z,43.30
2018-11-28T23:57:27.261Z,43.30
2018-11-28T23:59:55.368Z,43.30
